sensor_id;sensor_type;location;lat;lon;timestamp;temperature;humidity
4509;DHT22;2267;48.816;9.230;2022-12-10T00:01:10;3.90;99.90
4509;DHT22;2267;48.816;9.230;2022-12-10T00:03:38;3.90;99.90
4509;DHT22;2267;48.816;9.230;2022-12-10T00:06:07;3.90;99.90
4509;DHT22;2267;48.816;9.230;2022-12-10T00:08:34;3.90;99.90
4509;DHT22;2267;48.816;9.230;2022-12-10T00:11:08;3.90;99.90
4509;DHT22;2267;48.816;9.230;2022-12-10T00:13:36;3.90;99.90
4509;DHT22;2267;48.816;9.230;2022-12-10T00:16:05;3.90;99.90
4509;DHT22;2267;48.816;9.230;2022-12-10T00:18:33;3.90;99.90
4509;DHT22;2267;48.816;9.230;2022-12-10T00:21:09;3.90;99.90
4509;DHT22;2267;48.816;9.230;2022-12-10T00:23:37;3.90;99.90
4509;DHT22;2267;48.816;9.230;2022-12-10T00:26:06;3.90;99.90
4509;DHT22;2267;48.816;9.230;2022-12-10T00:28:33;3.90;99.90
4509;DHT22;2267;48.816;9.230;2022-12-10T00:31:12;3.90;99.90
4509;DHT22;2267;48.816;9.230;2022-12-10T00:33:40;3.90;99.90
4509;DHT22;2267;48.816;9.230;2022-12-10T00:36:13;3.90;99.90
4509;DHT22;2267;48.816;9.230;2022-12-10T00:38:41;3.90;99.90
4509;DHT22;2267;48.816;9.230;2022-12-10T00:41:11;3.90;99.90
4509;DHT22;2267;48.816;9.230;2022-12-10T00:43:39;3.90;99.90
4509;DHT22;2267;48.816;9.230;2022-12-10T00:46:06;3.90;99.90
4509;DHT22;2267;48.816;9.230;2022-12-10T00:48:33;3.90;99.90
4509;DHT22;2267;48.816;9.230;2022-12-10T00:51:05;3.90;99.90
4509;DHT22;2267;48.816;9.230;2022-12-10T00:53:34;3.90;99.90
4509;DHT22;2267;48.816;9.230;2022-12-10T00:56:01;3.90;99.90
4509;DHT22;2267;48.816;9.230;2022-12-10T00:58:32;3.90;99.90
4509;DHT22;2267;48.816;9.230;2022-12-10T01:01:12;3.90;99.90
4509;DHT22;2267;48.816;9.230;2022-12-10T01:03:40;3.90;99.90
4509;DHT22;2267;48.816;9.230;2022-12-10T01:06:19;3.90;99.90
4509;DHT22;2267;48.816;9.230;2022-12-10T01:08:47;3.90;99.90
4509;DHT22;2267;48.816;9.230;2022-12-10T01:11:15;3.90;99.90
4509;DHT22;2267;48.816;9.230;2022-12-10T01:13:44;3.90;99.90
4509;DHT22;2267;48.816;9.230;2022-12-10T01:16:12;3.90;99.90
4509;DHT22;2267;48.816;9.230;2022-12-10T01:18:40;3.90;99.90
4509;DHT22;2267;48.816;9.230;2022-12-10T01:21:10;3.90;99.90
4509;DHT22;2267;48.816;9.230;2022-12-10T01:23:39;3.90;99.90
4509;DHT22;2267;48.816;9.230;2022-12-10T01:26:09;3.90;99.90
4509;DHT22;2267;48.816;9.230;2022-12-10T01:28:38;3.90;99.90
4509;DHT22;2267;48.816;9.230;2022-12-10T01:31:16;3.90;99.90
4509;DHT22;2267;48.816;9.230;2022-12-10T01:33:43;3.90;99.90
4509;DHT22;2267;48.816;9.230;2022-12-10T01:36:28;3.90;99.90
4509;DHT22;2267;48.816;9.230;2022-12-10T01:38:55;3.90;99.90
4509;DHT22;2267;48.816;9.230;2022-12-10T01:41:29;3.90;99.90
4509;DHT22;2267;48.816;9.230;2022-12-10T01:46:46;3.90;99.90
4509;DHT22;2267;48.816;9.230;2022-12-10T01:49:24;3.90;99.90
4509;DHT22;2267;48.816;9.230;2022-12-10T01:51:54;3.90;99.90
4509;DHT22;2267;48.816;9.230;2022-12-10T01:54:27;3.90;99.90
4509;DHT22;2267;48.816;9.230;2022-12-10T01:57:02;3.90;99.90
4509;DHT22;2267;48.816;9.230;2022-12-10T01:59:30;3.90;99.90
4509;DHT22;2267;48.816;9.230;2022-12-10T02:07:29;3.90;99.90
4509;DHT22;2267;48.816;9.230;2022-12-10T02:15:38;3.90;99.90
4509;DHT22;2267;48.816;9.230;2022-12-10T02:18:36;3.90;99.90
4509;DHT22;2267;48.816;9.230;2022-12-10T02:21:03;3.90;99.90
4509;DHT22;2267;48.816;9.230;2022-12-10T02:23:39;3.90;99.90
4509;DHT22;2267;48.816;9.230;2022-12-10T02:26:20;3.90;99.90
4509;DHT22;2267;48.816;9.230;2022-12-10T02:31:25;3.90;99.90
4509;DHT22;2267;48.816;9.230;2022-12-10T02:33:57;3.80;99.90
4509;DHT22;2267;48.816;9.230;2022-12-10T02:36:33;3.80;99.90
4509;DHT22;2267;48.816;9.230;2022-12-10T02:39:03;3.80;99.90
4509;DHT22;2267;48.816;9.230;2022-12-10T02:41:38;3.80;99.90
4509;DHT22;2267;48.816;9.230;2022-12-10T02:44:09;3.80;99.90
4509;DHT22;2267;48.816;9.230;2022-12-10T02:46:38;3.80;99.90
4509;DHT22;2267;48.816;9.230;2022-12-10T02:49:07;3.80;99.90
4509;DHT22;2267;48.816;9.230;2022-12-10T02:51:35;3.80;99.90
4509;DHT22;2267;48.816;9.230;2022-12-10T02:54:04;3.80;99.90
4509;DHT22;2267;48.816;9.230;2022-12-10T02:56:36;3.80;99.90
4509;DHT22;2267;48.816;9.230;2022-12-10T02:59:33;3.80;99.90
4509;DHT22;2267;48.816;9.230;2022-12-10T03:02:21;3.80;99.90
4509;DHT22;2267;48.816;9.230;2022-12-10T03:05:12;3.80;99.90
4509;DHT22;2267;48.816;9.230;2022-12-10T03:07:59;3.80;99.90
4509;DHT22;2267;48.816;9.230;2022-12-10T03:10:34;3.70;99.90
4509;DHT22;2267;48.816;9.230;2022-12-10T03:13:05;3.70;99.90
4509;DHT22;2267;48.816;9.230;2022-12-10T03:15:34;3.70;99.90
4509;DHT22;2267;48.816;9.230;2022-12-10T03:18:03;3.70;99.90
4509;DHT22;2267;48.816;9.230;2022-12-10T03:20:33;3.70;99.90
4509;DHT22;2267;48.816;9.230;2022-12-10T03:23:01;3.70;99.90
4509;DHT22;2267;48.816;9.230;2022-12-10T03:25:30;3.70;99.90
4509;DHT22;2267;48.816;9.230;2022-12-10T03:27:59;3.70;99.90
4509;DHT22;2267;48.816;9.230;2022-12-10T03:30:29;3.70;99.90
4509;DHT22;2267;48.816;9.230;2022-12-10T03:32:57;3.70;99.90
4509;DHT22;2267;48.816;9.230;2022-12-10T03:35:24;3.70;99.90
4509;DHT22;2267;48.816;9.230;2022-12-10T03:37:51;3.70;99.90
4509;DHT22;2267;48.816;9.230;2022-12-10T03:40:22;3.70;99.90
4509;DHT22;2267;48.816;9.230;2022-12-10T03:42:49;3.70;99.90
4509;DHT22;2267;48.816;9.230;2022-12-10T03:45:16;3.70;99.90
4509;DHT22;2267;48.816;9.230;2022-12-10T03:47:43;3.70;99.90
4509;DHT22;2267;48.816;9.230;2022-12-10T03:50:10;3.70;99.90
4509;DHT22;2267;48.816;9.230;2022-12-10T03:52:37;3.70;99.90
4509;DHT22;2267;48.816;9.230;2022-12-10T03:55:05;3.70;99.90
4509;DHT22;2267;48.816;9.230;2022-12-10T03:57:34;3.70;99.90
4509;DHT22;2267;48.816;9.230;2022-12-10T04:00:02;3.70;99.90
4509;DHT22;2267;48.816;9.230;2022-12-10T04:02:29;3.70;99.90
4509;DHT22;2267;48.816;9.230;2022-12-10T04:04:55;3.70;99.90
4509;DHT22;2267;48.816;9.230;2022-12-10T04:07:22;3.70;99.90
4509;DHT22;2267;48.816;9.230;2022-12-10T04:09:49;3.70;99.90
4509;DHT22;2267;48.816;9.230;2022-12-10T04:12:16;3.70;99.90
4509;DHT22;2267;48.816;9.230;2022-12-10T04:14:42;3.70;99.90
4509;DHT22;2267;48.816;9.230;2022-12-10T04:17:27;3.70;99.90
4509;DHT22;2267;48.816;9.230;2022-12-10T04:19:54;3.70;99.90
4509;DHT22;2267;48.816;9.230;2022-12-10T04:22:21;3.70;99.90
4509;DHT22;2267;48.816;9.230;2022-12-10T04:25:09;3.70;99.90
4509;DHT22;2267;48.816;9.230;2022-12-10T04:27:55;3.70;99.90
4509;DHT22;2267;48.816;9.230;2022-12-10T04:30:22;3.70;99.90
4509;DHT22;2267;48.816;9.230;2022-12-10T04:32:49;3.70;99.90
4509;DHT22;2267;48.816;9.230;2022-12-10T04:35:16;3.70;99.90
4509;DHT22;2267;48.816;9.230;2022-12-10T04:37:43;3.70;99.90
4509;DHT22;2267;48.816;9.230;2022-12-10T04:40:10;3.70;99.90
4509;DHT22;2267;48.816;9.230;2022-12-10T04:42:37;3.70;99.90
4509;DHT22;2267;48.816;9.230;2022-12-10T04:45:04;3.70;99.90
4509;DHT22;2267;48.816;9.230;2022-12-10T04:47:31;3.70;99.90
4509;DHT22;2267;48.816;9.230;2022-12-10T04:49:58;3.70;99.90
4509;DHT22;2267;48.816;9.230;2022-12-10T04:52:24;3.70;99.90
4509;DHT22;2267;48.816;9.230;2022-12-10T04:54:51;3.70;99.90
4509;DHT22;2267;48.816;9.230;2022-12-10T04:57:18;3.70;99.90
4509;DHT22;2267;48.816;9.230;2022-12-10T04:59:45;3.70;99.90
4509;DHT22;2267;48.816;9.230;2022-12-10T05:02:11;3.70;99.90
4509;DHT22;2267;48.816;9.230;2022-12-10T05:04:38;3.70;99.90
4509;DHT22;2267;48.816;9.230;2022-12-10T05:07:05;3.70;99.90
4509;DHT22;2267;48.816;9.230;2022-12-10T05:09:31;3.70;99.90
4509;DHT22;2267;48.816;9.230;2022-12-10T05:11:58;3.70;99.90
4509;DHT22;2267;48.816;9.230;2022-12-10T05:14:25;3.70;99.90
4509;DHT22;2267;48.816;9.230;2022-12-10T05:16:52;3.70;99.90
4509;DHT22;2267;48.816;9.230;2022-12-10T05:19:19;3.70;99.90
4509;DHT22;2267;48.816;9.230;2022-12-10T05:21:46;3.70;99.90
4509;DHT22;2267;48.816;9.230;2022-12-10T05:24:36;3.70;99.90
4509;DHT22;2267;48.816;9.230;2022-12-10T05:27:04;3.70;99.90
4509;DHT22;2267;48.816;9.230;2022-12-10T05:29:35;3.70;99.90
4509;DHT22;2267;48.816;9.230;2022-12-10T05:32:03;3.70;99.90
4509;DHT22;2267;48.816;9.230;2022-12-10T05:34:31;3.60;99.90
4509;DHT22;2267;48.816;9.230;2022-12-10T05:36:58;3.60;99.90
4509;DHT22;2267;48.816;9.230;2022-12-10T05:39:25;3.60;99.90
4509;DHT22;2267;48.816;9.230;2022-12-10T05:41:51;3.60;99.90
4509;DHT22;2267;48.816;9.230;2022-12-10T05:44:18;3.60;99.90
4509;DHT22;2267;48.816;9.230;2022-12-10T05:46:45;3.60;99.90
4509;DHT22;2267;48.816;9.230;2022-12-10T05:49:12;3.60;99.90
4509;DHT22;2267;48.816;9.230;2022-12-10T05:51:38;3.60;99.90
4509;DHT22;2267;48.816;9.230;2022-12-10T05:54:06;3.60;99.90
4509;DHT22;2267;48.816;9.230;2022-12-10T05:56:36;3.60;99.90
4509;DHT22;2267;48.816;9.230;2022-12-10T05:59:03;3.60;99.90
4509;DHT22;2267;48.816;9.230;2022-12-10T06:01:32;3.60;99.90
4509;DHT22;2267;48.816;9.230;2022-12-10T06:04:01;3.60;99.90
4509;DHT22;2267;48.816;9.230;2022-12-10T06:06:30;3.60;99.90
4509;DHT22;2267;48.816;9.230;2022-12-10T06:08:57;3.60;99.90
4509;DHT22;2267;48.816;9.230;2022-12-10T06:11:25;3.60;99.90
4509;DHT22;2267;48.816;9.230;2022-12-10T06:13:53;3.60;99.90
4509;DHT22;2267;48.816;9.230;2022-12-10T06:16:23;3.60;99.90
4509;DHT22;2267;48.816;9.230;2022-12-10T06:18:51;3.60;99.90
4509;DHT22;2267;48.816;9.230;2022-12-10T06:21:18;3.60;99.90
4509;DHT22;2267;48.816;9.230;2022-12-10T06:23:45;3.60;99.90
4509;DHT22;2267;48.816;9.230;2022-12-10T06:26:15;3.60;99.90
4509;DHT22;2267;48.816;9.230;2022-12-10T06:28:44;3.60;99.90
4509;DHT22;2267;48.816;9.230;2022-12-10T06:31:11;3.60;99.90
4509;DHT22;2267;48.816;9.230;2022-12-10T06:33:38;3.60;99.90
4509;DHT22;2267;48.816;9.230;2022-12-10T06:36:07;3.60;99.90
4509;DHT22;2267;48.816;9.230;2022-12-10T06:38:34;3.60;99.90
4509;DHT22;2267;48.816;9.230;2022-12-10T06:41:05;3.60;99.90
4509;DHT22;2267;48.816;9.230;2022-12-10T06:43:33;3.60;99.90
4509;DHT22;2267;48.816;9.230;2022-12-10T06:46:05;3.60;99.90
4509;DHT22;2267;48.816;9.230;2022-12-10T06:48:32;3.60;99.90
4509;DHT22;2267;48.816;9.230;2022-12-10T06:50:59;3.60;99.90
4509;DHT22;2267;48.816;9.230;2022-12-10T06:53:26;3.60;99.90
4509;DHT22;2267;48.816;9.230;2022-12-10T06:55:52;3.60;99.90
4509;DHT22;2267;48.816;9.230;2022-12-10T06:58:19;3.60;99.90
4509;DHT22;2267;48.816;9.230;2022-12-10T07:00:46;3.60;99.90
4509;DHT22;2267;48.816;9.230;2022-12-10T07:03:13;3.50;99.90
4509;DHT22;2267;48.816;9.230;2022-12-10T07:05:39;3.50;99.90
4509;DHT22;2267;48.816;9.230;2022-12-10T07:08:06;3.50;99.90
4509;DHT22;2267;48.816;9.230;2022-12-10T07:10:33;3.50;99.90
4509;DHT22;2267;48.816;9.230;2022-12-10T07:13:00;3.50;99.90
4509;DHT22;2267;48.816;9.230;2022-12-10T07:15:26;3.60;99.90
4509;DHT22;2267;48.816;9.230;2022-12-10T07:17:54;3.50;99.90
4509;DHT22;2267;48.816;9.230;2022-12-10T07:20:21;3.50;99.90
4509;DHT22;2267;48.816;9.230;2022-12-10T07:22:48;3.50;99.90
4509;DHT22;2267;48.816;9.230;2022-12-10T07:25:15;3.50;99.90
4509;DHT22;2267;48.816;9.230;2022-12-10T07:27:41;3.50;99.90
4509;DHT22;2267;48.816;9.230;2022-12-10T07:30:09;3.50;99.90
4509;DHT22;2267;48.816;9.230;2022-12-10T07:32:36;3.50;99.90
4509;DHT22;2267;48.816;9.230;2022-12-10T07:35:03;3.50;99.90
4509;DHT22;2267;48.816;9.230;2022-12-10T07:37:30;3.50;99.90
4509;DHT22;2267;48.816;9.230;2022-12-10T07:39:57;3.50;99.90
4509;DHT22;2267;48.816;9.230;2022-12-10T07:42:24;3.50;99.90
4509;DHT22;2267;48.816;9.230;2022-12-10T07:44:50;3.50;99.90
4509;DHT22;2267;48.816;9.230;2022-12-10T07:47:17;3.60;99.90
4509;DHT22;2267;48.816;9.230;2022-12-10T07:49:44;3.60;99.90
4509;DHT22;2267;48.816;9.230;2022-12-10T07:52:11;3.60;99.90
4509;DHT22;2267;48.816;9.230;2022-12-10T07:54:38;3.60;99.90
4509;DHT22;2267;48.816;9.230;2022-12-10T07:57:04;3.60;99.90
4509;DHT22;2267;48.816;9.230;2022-12-10T07:59:31;3.60;99.90
4509;DHT22;2267;48.816;9.230;2022-12-10T08:01:58;3.60;99.90
4509;DHT22;2267;48.816;9.230;2022-12-10T08:04:32;3.60;99.90
4509;DHT22;2267;48.816;9.230;2022-12-10T08:06:59;3.60;99.90
4509;DHT22;2267;48.816;9.230;2022-12-10T08:09:26;3.60;99.90
4509;DHT22;2267;48.816;9.230;2022-12-10T08:11:53;3.60;99.90
4509;DHT22;2267;48.816;9.230;2022-12-10T08:14:19;3.60;99.90
4509;DHT22;2267;48.816;9.230;2022-12-10T08:16:46;3.60;99.90
4509;DHT22;2267;48.816;9.230;2022-12-10T08:19:13;3.60;99.90
4509;DHT22;2267;48.816;9.230;2022-12-10T08:21:47;3.60;99.90
4509;DHT22;2267;48.816;9.230;2022-12-10T08:24:14;3.70;99.90
4509;DHT22;2267;48.816;9.230;2022-12-10T08:26:41;3.70;99.90
4509;DHT22;2267;48.816;9.230;2022-12-10T08:29:07;3.70;99.90
4509;DHT22;2267;48.816;9.230;2022-12-10T08:31:34;3.60;99.90
4509;DHT22;2267;48.816;9.230;2022-12-10T08:34:04;3.70;99.90
4509;DHT22;2267;48.816;9.230;2022-12-10T08:36:31;3.70;99.90
4509;DHT22;2267;48.816;9.230;2022-12-10T08:38:58;3.70;99.90
4509;DHT22;2267;48.816;9.230;2022-12-10T08:41:26;3.70;99.90
4509;DHT22;2267;48.816;9.230;2022-12-10T08:43:53;3.70;99.90
4509;DHT22;2267;48.816;9.230;2022-12-10T08:46:20;3.70;99.90
4509;DHT22;2267;48.816;9.230;2022-12-10T08:48:47;3.80;99.90
4509;DHT22;2267;48.816;9.230;2022-12-10T08:51:16;3.80;99.90
4509;DHT22;2267;48.816;9.230;2022-12-10T08:53:44;3.80;99.90
4509;DHT22;2267;48.816;9.230;2022-12-10T08:56:12;3.80;99.90
4509;DHT22;2267;48.816;9.230;2022-12-10T08:58:39;3.80;99.90
4509;DHT22;2267;48.816;9.230;2022-12-10T09:01:11;3.80;99.90
4509;DHT22;2267;48.816;9.230;2022-12-10T09:03:39;3.80;99.90
4509;DHT22;2267;48.816;9.230;2022-12-10T09:06:08;3.90;99.90
4509;DHT22;2267;48.816;9.230;2022-12-10T09:08:36;3.80;99.90
4509;DHT22;2267;48.816;9.230;2022-12-10T09:11:08;3.80;99.90
4509;DHT22;2267;48.816;9.230;2022-12-10T09:13:35;3.90;99.90
4509;DHT22;2267;48.816;9.230;2022-12-10T09:16:02;3.80;99.90
4509;DHT22;2267;48.816;9.230;2022-12-10T09:18:29;3.90;99.90
4509;DHT22;2267;48.816;9.230;2022-12-10T09:20:56;3.90;99.90
4509;DHT22;2267;48.816;9.230;2022-12-10T09:23:23;3.90;99.90
4509;DHT22;2267;48.816;9.230;2022-12-10T09:25:49;3.90;99.90
4509;DHT22;2267;48.816;9.230;2022-12-10T09:28:16;3.90;99.90
4509;DHT22;2267;48.816;9.230;2022-12-10T09:30:43;3.90;99.90
4509;DHT22;2267;48.816;9.230;2022-12-10T09:33:10;3.90;99.90
4509;DHT22;2267;48.816;9.230;2022-12-10T09:35:40;4.00;99.90
4509;DHT22;2267;48.816;9.230;2022-12-10T09:38:08;4.00;99.90
4509;DHT22;2267;48.816;9.230;2022-12-10T09:46:51;4.00;99.90
4509;DHT22;2267;48.816;9.230;2022-12-10T09:52:19;4.00;99.90
4509;DHT22;2267;48.816;9.230;2022-12-10T09:54:57;4.00;99.90
4509;DHT22;2267;48.816;9.230;2022-12-10T10:00:03;4.10;99.90
4509;DHT22;2267;48.816;9.230;2022-12-10T10:02:31;4.10;99.90
4509;DHT22;2267;48.816;9.230;2022-12-10T10:07:38;4.20;99.90
4509;DHT22;2267;48.816;9.230;2022-12-10T10:12:55;4.20;99.90
4509;DHT22;2267;48.816;9.230;2022-12-10T10:15:27;4.20;99.90
4509;DHT22;2267;48.816;9.230;2022-12-10T10:18:01;4.20;99.90
4509;DHT22;2267;48.816;9.230;2022-12-10T10:20:29;4.20;99.90
4509;DHT22;2267;48.816;9.230;2022-12-10T10:22:57;4.20;99.90
4509;DHT22;2267;48.816;9.230;2022-12-10T10:25:25;4.20;99.90
4509;DHT22;2267;48.816;9.230;2022-12-10T10:27:53;4.20;99.90
4509;DHT22;2267;48.816;9.230;2022-12-10T10:30:22;4.20;99.90
4509;DHT22;2267;48.816;9.230;2022-12-10T10:32:54;4.20;99.90
4509;DHT22;2267;48.816;9.230;2022-12-10T10:35:28;4.20;99.90
4509;DHT22;2267;48.816;9.230;2022-12-10T10:38:07;4.20;99.90
4509;DHT22;2267;48.816;9.230;2022-12-10T10:40:43;4.20;99.90
4509;DHT22;2267;48.816;9.230;2022-12-10T10:43:23;4.20;99.90
4509;DHT22;2267;48.816;9.230;2022-12-10T10:46:17;4.30;99.90
4509;DHT22;2267;48.816;9.230;2022-12-10T10:48:44;4.30;99.90
4509;DHT22;2267;48.816;9.230;2022-12-10T10:56:08;4.30;99.90
4509;DHT22;2267;48.816;9.230;2022-12-10T10:58:36;4.30;99.90
4509;DHT22;2267;48.816;9.230;2022-12-10T11:01:11;4.40;99.90
4509;DHT22;2267;48.816;9.230;2022-12-10T11:03:49;4.40;99.90
4509;DHT22;2267;48.816;9.230;2022-12-10T11:06:17;4.30;99.90
4509;DHT22;2267;48.816;9.230;2022-12-10T11:08:46;4.40;99.90
4509;DHT22;2267;48.816;9.230;2022-12-10T11:11:19;4.40;99.90
4509;DHT22;2267;48.816;9.230;2022-12-10T11:13:47;4.40;99.90
4509;DHT22;2267;48.816;9.230;2022-12-10T11:16:23;4.40;99.90
4509;DHT22;2267;48.816;9.230;2022-12-10T11:19:01;4.40;99.90
4509;DHT22;2267;48.816;9.230;2022-12-10T11:21:34;4.40;99.90
4509;DHT22;2267;48.816;9.230;2022-12-10T11:24:11;4.50;99.90
4509;DHT22;2267;48.816;9.230;2022-12-10T12:00:25;4.50;99.90
4509;DHT22;2267;48.816;9.230;2022-12-10T12:06:17;4.60;99.90
4509;DHT22;2267;48.816;9.230;2022-12-10T12:09:10;4.60;99.90
4509;DHT22;2267;48.816;9.230;2022-12-10T12:14:40;4.60;99.90
4509;DHT22;2267;48.816;9.230;2022-12-10T12:17:23;4.60;99.90
4509;DHT22;2267;48.816;9.230;2022-12-10T12:20:05;4.60;99.90
4509;DHT22;2267;48.816;9.230;2022-12-10T12:22:43;4.60;99.90
4509;DHT22;2267;48.816;9.230;2022-12-10T12:25:31;4.60;99.90
4509;DHT22;2267;48.816;9.230;2022-12-10T12:28:11;4.70;99.90
4509;DHT22;2267;48.816;9.230;2022-12-10T12:30:41;4.70;99.90
4509;DHT22;2267;48.816;9.230;2022-12-10T12:36:22;4.70;99.90
4509;DHT22;2267;48.816;9.230;2022-12-10T12:39:12;4.70;99.90
4509;DHT22;2267;48.816;9.230;2022-12-10T12:41:55;4.70;99.90
4509;DHT22;2267;48.816;9.230;2022-12-10T12:47:26;4.70;99.90
4509;DHT22;2267;48.816;9.230;2022-12-10T12:49:56;4.70;99.90
4509;DHT22;2267;48.816;9.230;2022-12-10T12:52:43;4.70;99.90
4509;DHT22;2267;48.816;9.230;2022-12-10T12:55:24;4.70;99.90
4509;DHT22;2267;48.816;9.230;2022-12-10T12:58:17;4.70;99.90
4509;DHT22;2267;48.816;9.230;2022-12-10T13:00:49;4.70;99.90
4509;DHT22;2267;48.816;9.230;2022-12-10T13:03:35;4.70;99.90
4509;DHT22;2267;48.816;9.230;2022-12-10T13:06:13;4.80;99.90
4509;DHT22;2267;48.816;9.230;2022-12-10T13:11:40;4.80;99.90
4509;DHT22;2267;48.816;9.230;2022-12-10T13:24:46;4.70;99.90
4509;DHT22;2267;48.816;9.230;2022-12-10T13:27:31;4.70;99.90
4509;DHT22;2267;48.816;9.230;2022-12-10T13:42:59;4.60;99.90
4509;DHT22;2267;48.816;9.230;2022-12-10T13:49:22;4.70;99.90
4509;DHT22;2267;48.816;9.230;2022-12-10T13:54:40;4.60;99.90
4509;DHT22;2267;48.816;9.230;2022-12-10T14:03:03;4.50;99.90
4509;DHT22;2267;48.816;9.230;2022-12-10T14:08:31;4.50;99.90
4509;DHT22;2267;48.816;9.230;2022-12-10T14:11:01;4.40;99.90
4509;DHT22;2267;48.816;9.230;2022-12-10T14:13:36;4.40;99.90
4509;DHT22;2267;48.816;9.230;2022-12-10T14:16:09;4.30;99.90
4509;DHT22;2267;48.816;9.230;2022-12-10T14:18:37;4.30;99.90
4509;DHT22;2267;48.816;9.230;2022-12-10T14:21:06;4.30;99.90
4509;DHT22;2267;48.816;9.230;2022-12-10T14:23:34;4.30;99.90
4509;DHT22;2267;48.816;9.230;2022-12-10T14:26:18;4.30;99.90
4509;DHT22;2267;48.816;9.230;2022-12-10T14:29:16;4.30;99.90
4509;DHT22;2267;48.816;9.230;2022-12-10T14:31:51;4.20;99.90
4509;DHT22;2267;48.816;9.230;2022-12-10T14:34:22;4.20;99.90
4509;DHT22;2267;48.816;9.230;2022-12-10T14:36:52;4.20;99.90
4509;DHT22;2267;48.816;9.230;2022-12-10T14:39:31;4.20;99.90
4509;DHT22;2267;48.816;9.230;2022-12-10T14:42:02;4.10;99.90
4509;DHT22;2267;48.816;9.230;2022-12-10T14:44:30;4.10;99.90
4509;DHT22;2267;48.816;9.230;2022-12-10T14:47:15;4.10;99.90
4509;DHT22;2267;48.816;9.230;2022-12-10T14:49:48;4.10;99.90
4509;DHT22;2267;48.816;9.230;2022-12-10T14:52:22;4.10;99.90
4509;DHT22;2267;48.816;9.230;2022-12-10T14:54:49;4.10;99.90
4509;DHT22;2267;48.816;9.230;2022-12-10T14:57:30;4.00;99.90
4509;DHT22;2267;48.816;9.230;2022-12-10T15:00:13;4.00;99.90
4509;DHT22;2267;48.816;9.230;2022-12-10T15:02:56;4.00;99.90
4509;DHT22;2267;48.816;9.230;2022-12-10T15:05:27;4.00;99.90
4509;DHT22;2267;48.816;9.230;2022-12-10T15:08:01;4.00;99.90
4509;DHT22;2267;48.816;9.230;2022-12-10T15:10:40;4.00;99.90
4509;DHT22;2267;48.816;9.230;2022-12-10T15:13:21;4.00;99.90
4509;DHT22;2267;48.816;9.230;2022-12-10T15:15:51;4.00;99.90
4509;DHT22;2267;48.816;9.230;2022-12-10T15:18:41;3.90;99.90
4509;DHT22;2267;48.816;9.230;2022-12-10T15:21:15;4.00;99.90
4509;DHT22;2267;48.816;9.230;2022-12-10T15:23:44;4.00;99.90
4509;DHT22;2267;48.816;9.230;2022-12-10T15:28:49;4.00;99.90
4509;DHT22;2267;48.816;9.230;2022-12-10T15:34:00;4.00;99.90
4509;DHT22;2267;48.816;9.230;2022-12-10T15:39:19;4.00;99.90
4509;DHT22;2267;48.816;9.230;2022-12-10T15:46:57;4.00;99.90
4509;DHT22;2267;48.816;9.230;2022-12-10T15:49:24;4.00;99.90
4509;DHT22;2267;48.816;9.230;2022-12-10T15:51:51;4.00;99.90
4509;DHT22;2267;48.816;9.230;2022-12-10T15:54:34;4.00;99.90
4509;DHT22;2267;48.816;9.230;2022-12-10T15:57:20;4.00;99.90
4509;DHT22;2267;48.816;9.230;2022-12-10T15:59:48;4.00;99.90
4509;DHT22;2267;48.816;9.230;2022-12-10T16:05:26;4.00;99.90
4509;DHT22;2267;48.816;9.230;2022-12-10T16:07:55;4.00;99.90
4509;DHT22;2267;48.816;9.230;2022-12-10T16:10:24;3.90;99.90
4509;DHT22;2267;48.816;9.230;2022-12-10T16:13:00;3.90;99.90
4509;DHT22;2267;48.816;9.230;2022-12-10T16:15:31;3.90;99.90
4509;DHT22;2267;48.816;9.230;2022-12-10T16:18:07;3.90;99.90
4509;DHT22;2267;48.816;9.230;2022-12-10T16:20:37;3.90;99.90
4509;DHT22;2267;48.816;9.230;2022-12-10T16:23:04;4.00;99.90
4509;DHT22;2267;48.816;9.230;2022-12-10T16:25:33;4.00;99.90
4509;DHT22;2267;48.816;9.230;2022-12-10T16:28:02;3.90;99.90
4509;DHT22;2267;48.816;9.230;2022-12-10T16:30:35;3.90;99.90
4509;DHT22;2267;48.816;9.230;2022-12-10T16:33:09;3.90;99.90
4509;DHT22;2267;48.816;9.230;2022-12-10T16:35:36;3.90;99.90
4509;DHT22;2267;48.816;9.230;2022-12-10T16:38:03;3.90;99.90
4509;DHT22;2267;48.816;9.230;2022-12-10T16:40:36;3.90;99.90
4509;DHT22;2267;48.816;9.230;2022-12-10T16:43:04;3.90;99.90
4509;DHT22;2267;48.816;9.230;2022-12-10T16:45:35;3.90;99.90
4509;DHT22;2267;48.816;9.230;2022-12-10T16:48:03;3.80;99.90
4509;DHT22;2267;48.816;9.230;2022-12-10T16:50:30;3.80;99.90
4509;DHT22;2267;48.816;9.230;2022-12-10T16:53:03;3.80;99.90
4509;DHT22;2267;48.816;9.230;2022-12-10T16:55:30;3.80;99.90
4509;DHT22;2267;48.816;9.230;2022-12-10T16:57:57;3.80;99.90
4509;DHT22;2267;48.816;9.230;2022-12-10T17:00:25;3.80;99.90
4509;DHT22;2267;48.816;9.230;2022-12-10T17:02:53;3.80;99.90
4509;DHT22;2267;48.816;9.230;2022-12-10T17:07:53;3.80;99.90
4509;DHT22;2267;48.816;9.230;2022-12-10T17:10:20;5.30;99.90
4509;DHT22;2267;48.816;9.230;2022-12-10T17:13:14;6.40;99.90
4509;DHT22;2267;48.816;9.230;2022-12-10T17:15:42;7.00;99.90
4509;DHT22;2267;48.816;9.230;2022-12-10T17:18:17;7.50;99.90
4509;DHT22;2267;48.816;9.230;2022-12-10T17:20:46;7.30;99.90
4509;DHT22;2267;48.816;9.230;2022-12-10T17:23:13;6.80;99.90
4509;DHT22;2267;48.816;9.230;2022-12-10T17:25:41;6.40;99.90
4509;DHT22;2267;48.816;9.230;2022-12-10T17:28:21;6.10;99.90
4509;DHT22;2267;48.816;9.230;2022-12-10T17:30:49;5.80;99.90
4509;DHT22;2267;48.816;9.230;2022-12-10T17:33:18;5.50;99.90
4509;DHT22;2267;48.816;9.230;2022-12-10T17:35:46;5.30;99.90
4509;DHT22;2267;48.816;9.230;2022-12-10T17:38:22;5.10;99.90
4509;DHT22;2267;48.816;9.230;2022-12-10T17:40:50;4.90;99.90
4509;DHT22;2267;48.816;9.230;2022-12-10T17:43:17;4.80;99.90
4509;DHT22;2267;48.816;9.230;2022-12-10T17:45:44;4.70;99.90
4509;DHT22;2267;48.816;9.230;2022-12-10T17:48:13;4.60;99.90
4509;DHT22;2267;48.816;9.230;2022-12-10T17:50:41;4.60;99.90
4509;DHT22;2267;48.816;9.230;2022-12-10T17:53:11;4.50;99.90
4509;DHT22;2267;48.816;9.230;2022-12-10T17:55:43;4.40;99.90
4509;DHT22;2267;48.816;9.230;2022-12-10T17:58:14;4.40;99.90
4509;DHT22;2267;48.816;9.230;2022-12-10T18:00:41;4.30;99.90
4509;DHT22;2267;48.816;9.230;2022-12-10T18:03:09;4.30;99.90
4509;DHT22;2267;48.816;9.230;2022-12-10T18:05:36;4.20;99.90
4509;DHT22;2267;48.816;9.230;2022-12-10T18:08:03;4.10;99.90
4509;DHT22;2267;48.816;9.230;2022-12-10T18:10:31;4.10;99.90
4509;DHT22;2267;48.816;9.230;2022-12-10T18:13:00;4.00;99.90
4509;DHT22;2267;48.816;9.230;2022-12-10T18:15:28;4.00;99.90
4509;DHT22;2267;48.816;9.230;2022-12-10T18:17:57;3.90;99.90
4509;DHT22;2267;48.816;9.230;2022-12-10T18:22:54;3.90;99.90
4509;DHT22;2267;48.816;9.230;2022-12-10T18:25:22;3.90;99.90
4509;DHT22;2267;48.816;9.230;2022-12-10T18:27:50;3.90;99.90
4509;DHT22;2267;48.816;9.230;2022-12-10T18:30:20;3.90;99.90
4509;DHT22;2267;48.816;9.230;2022-12-10T18:32:48;3.90;99.90
4509;DHT22;2267;48.816;9.230;2022-12-10T18:35:16;3.80;99.90
4509;DHT22;2267;48.816;9.230;2022-12-10T18:37:43;3.80;99.90
4509;DHT22;2267;48.816;9.230;2022-12-10T18:40:17;3.80;99.90
4509;DHT22;2267;48.816;9.230;2022-12-10T18:42:44;3.80;99.90
4509;DHT22;2267;48.816;9.230;2022-12-10T18:45:13;3.80;99.90
4509;DHT22;2267;48.816;9.230;2022-12-10T18:47:40;3.80;99.90
4509;DHT22;2267;48.816;9.230;2022-12-10T18:50:22;3.80;99.90
4509;DHT22;2267;48.816;9.230;2022-12-10T18:52:51;3.80;99.90
4509;DHT22;2267;48.816;9.230;2022-12-10T18:55:19;3.80;99.90
4509;DHT22;2267;48.816;9.230;2022-12-10T18:57:47;3.80;99.90
4509;DHT22;2267;48.816;9.230;2022-12-10T19:00:25;3.80;99.90
4509;DHT22;2267;48.816;9.230;2022-12-10T19:02:53;3.70;99.90
4509;DHT22;2267;48.816;9.230;2022-12-10T19:05:20;3.70;99.90
4509;DHT22;2267;48.816;9.230;2022-12-10T19:07:47;3.70;99.90